sensor_id;sensor_type;location;lat;lon;timestamp;pressure;altitude;pressure_sealevel;temperature;humidity
79617;BME280;69097;52.132;5.422;2023-06-24T00:01:34;102560.94;;;18.56;73.55
79617;BME280;69097;52.132;5.422;2023-06-24T00:04:01;102546.38;;;18.54;73.65
79617;BME280;69097;52.132;5.422;2023-06-24T00:06:27;102559.34;;;18.55;73.78
79617;BME280;69097;52.132;5.422;2023-06-24T00:08:54;102555.34;;;18.53;73.63
79617;BME280;69097;52.132;5.422;2023-06-24T00:11:28;102556.94;;;18.54;73.59
79617;BME280;69097;52.132;5.422;2023-06-24T00:13:57;102559.44;;;18.52;74.12
79617;BME280;69097;52.132;5.422;2023-06-24T00:16:23;102561.47;;;18.51;74.17
79617;BME280;69097;52.132;5.422;2023-06-24T00:18:54;102571.69;;;18.49;74.31
79617;BME280;69097;52.132;5.422;2023-06-24T00:21:28;102562.81;;;18.47;74.01
79617;BME280;69097;52.132;5.422;2023-06-24T00:23:59;102560.44;;;18.45;73.89
79617;BME280;69097;52.132;5.422;2023-06-24T00:26:30;102569.84;;;18.42;74.32
79617;BME280;69097;52.132;5.422;2023-06-24T00:28:58;102565.41;;;18.41;74.52
79617;BME280;69097;52.132;5.422;2023-06-24T00:31:25;102559.00;;;18.37;74.37
79617;BME280;69097;52.132;5.422;2023-06-24T00:33:52;102567.69;;;18.30;73.82
79617;BME280;69097;52.132;5.422;2023-06-24T00:36:19;102582.25;;;18.16;73.84
79617;BME280;69097;52.132;5.422;2023-06-24T00:38:46;102572.59;;;18.13;73.87
79617;BME280;69097;52.132;5.422;2023-06-24T00:41:12;102568.50;;;18.14;73.49
79617;BME280;69097;52.132;5.422;2023-06-24T00:43:42;102571.06;;;18.09;73.34
79617;BME280;69097;52.132;5.422;2023-06-24T00:46:09;102581.28;;;18.06;73.94
79617;BME280;69097;52.132;5.422;2023-06-24T00:48:35;102578.44;;;18.06;73.72
79617;BME280;69097;52.132;5.422;2023-06-24T00:51:02;102574.09;;;18.02;74.11
79617;BME280;69097;52.132;5.422;2023-06-24T00:53:29;102575.03;;;17.95;74.64
79617;BME280;69097;52.132;5.422;2023-06-24T00:55:57;102577.97;;;17.92;74.94
79617;BME280;69097;52.132;5.422;2023-06-24T00:58:29;102576.91;;;17.86;75.47
79617;BME280;69097;52.132;5.422;2023-06-24T01:00:57;102572.63;;;17.78;75.25
79617;BME280;69097;52.132;5.422;2023-06-24T01:03:24;102573.88;;;17.77;75.00
79617;BME280;69097;52.132;5.422;2023-06-24T01:05:52;102563.75;;;17.76;75.29
79617;BME280;69097;52.132;5.422;2023-06-24T01:08:20;102556.06;;;17.76;75.31
79617;BME280;69097;52.132;5.422;2023-06-24T01:10:50;102559.34;;;17.75;75.61
79617;BME280;69097;52.132;5.422;2023-06-24T01:13:19;102560.28;;;17.68;75.39
79617;BME280;69097;52.132;5.422;2023-06-24T01:15:46;102561.44;;;17.71;74.52
79617;BME280;69097;52.132;5.422;2023-06-24T01:21:22;102555.13;;;17.63;75.67
79617;BME280;69097;52.132;5.422;2023-06-24T01:24:13;102554.34;;;17.63;75.54
79617;BME280;69097;52.132;5.422;2023-06-24T01:32:26;102552.91;;;17.55;77.38
79617;BME280;69097;52.132;5.422;2023-06-24T01:34:58;102548.91;;;17.52;77.39
79617;BME280;69097;52.132;5.422;2023-06-24T01:37:35;102548.91;;;17.52;77.57
79617;BME280;69097;52.132;5.422;2023-06-24T01:40:37;102546.50;;;17.51;77.57
79617;BME280;69097;52.132;5.422;2023-06-24T01:43:08;102548.53;;;17.50;77.40
79617;BME280;69097;52.132;5.422;2023-06-24T01:45:40;102556.34;;;17.46;76.98
79617;BME280;69097;52.132;5.422;2023-06-24T01:48:13;102559.22;;;17.43;77.15
79617;BME280;69097;52.132;5.422;2023-06-24T01:50:49;102561.34;;;17.39;77.02
79617;BME280;69097;52.132;5.422;2023-06-24T01:53:18;102561.47;;;17.32;77.46
79617;BME280;69097;52.132;5.422;2023-06-24T01:55:46;102561.47;;;17.32;77.45
79617;BME280;69097;52.132;5.422;2023-06-24T01:58:13;102553.41;;;17.30;77.38
79617;BME280;69097;52.132;5.422;2023-06-24T02:00:40;102553.03;;;17.28;77.30
79617;BME280;69097;52.132;5.422;2023-06-24T02:03:08;102554.75;;;17.26;77.20
79617;BME280;69097;52.132;5.422;2023-06-24T02:05:36;102548.63;;;17.27;77.23
79617;BME280;69097;52.132;5.422;2023-06-24T02:08:10;102545.41;;;17.25;76.98
79617;BME280;69097;52.132;5.422;2023-06-24T02:10:40;102549.50;;;17.24;77.54
79617;BME280;69097;52.132;5.422;2023-06-24T02:13:09;102543.91;;;17.20;77.53
79617;BME280;69097;52.132;5.422;2023-06-24T02:15:38;102545.13;;;17.19;77.67
79617;BME280;69097;52.132;5.422;2023-06-24T02:18:06;102544.34;;;17.19;77.54
79617;BME280;69097;52.132;5.422;2023-06-24T02:20:36;102539.91;;;17.18;77.63
79617;BME280;69097;52.132;5.422;2023-06-24T02:23:06;102535.53;;;17.13;77.63
79617;BME280;69097;52.132;5.422;2023-06-24T02:25:35;102539.25;;;17.10;77.53
79617;BME280;69097;52.132;5.422;2023-06-24T02:28:07;102537.72;;;17.06;77.90
79617;BME280;69097;52.132;5.422;2023-06-24T02:30:38;102533.81;;;17.00;78.35
79617;BME280;69097;52.132;5.422;2023-06-24T02:33:05;102536.66;;;17.00;78.70
79617;BME280;69097;52.132;5.422;2023-06-24T02:35:33;102532.22;;;16.99;78.15
79617;BME280;69097;52.132;5.422;2023-06-24T02:38:00;102528.22;;;16.96;78.19
79617;BME280;69097;52.132;5.422;2023-06-24T02:40:27;102526.69;;;16.92;78.27
79617;BME280;69097;52.132;5.422;2023-06-24T02:42:54;102527.13;;;16.90;78.49
79617;BME280;69097;52.132;5.422;2023-06-24T02:45:21;102527.13;;;16.90;78.33
79617;BME280;69097;52.132;5.422;2023-06-24T02:47:48;102521.91;;;16.89;78.70
79617;BME280;69097;52.132;5.422;2023-06-24T02:50:16;102525.16;;;16.87;78.31
79617;BME280;69097;52.132;5.422;2023-06-24T02:52:43;102527.63;;;16.85;78.23
79617;BME280;69097;52.132;5.422;2023-06-24T02:55:09;102524.88;;;16.82;78.35
79617;BME280;69097;52.132;5.422;2023-06-24T02:57:36;102529.72;;;16.81;78.31
79617;BME280;69097;52.132;5.422;2023-06-24T03:00:03;102533.00;;;16.80;78.75
79617;BME280;69097;52.132;5.422;2023-06-24T03:02:38;102527.84;;;16.75;78.98
79617;BME280;69097;52.132;5.422;2023-06-24T03:05:07;102525.44;;;16.73;78.66
79617;BME280;69097;52.132;5.422;2023-06-24T03:07:34;102524.72;;;16.69;78.64
79617;BME280;69097;52.132;5.422;2023-06-24T03:10:04;102523.19;;;16.65;79.08
79617;BME280;69097;52.132;5.422;2023-06-24T03:12:34;102527.34;;;16.60;78.78
79617;BME280;69097;52.132;5.422;2023-06-24T03:15:00;102520.06;;;16.59;78.99
79617;BME280;69097;52.132;5.422;2023-06-24T03:17:27;102522.94;;;16.56;78.76
79617;BME280;69097;52.132;5.422;2023-06-24T03:19:54;102521.06;;;16.49;78.77
79617;BME280;69097;52.132;5.422;2023-06-24T03:22:21;102522.34;;;16.45;79.04
79617;BME280;69097;52.132;5.422;2023-06-24T03:24:49;102519.56;;;16.41;78.80
79617;BME280;69097;52.132;5.422;2023-06-24T03:27:15;102520.88;;;16.37;78.60
79617;BME280;69097;52.132;5.422;2023-06-24T03:29:42;102526.16;;;16.35;78.85
79617;BME280;69097;52.132;5.422;2023-06-24T03:32:08;102527.81;;;16.32;78.95
79617;BME280;69097;52.132;5.422;2023-06-24T03:34:35;102530.28;;;16.30;78.98
79617;BME280;69097;52.132;5.422;2023-06-24T03:37:02;102534.34;;;16.29;79.26
79617;BME280;69097;52.132;5.422;2023-06-24T03:39:30;102532.75;;;16.28;79.34
79617;BME280;69097;52.132;5.422;2023-06-24T03:41:58;102530.69;;;16.29;79.37
79617;BME280;69097;52.132;5.422;2023-06-24T03:44:24;102533.16;;;16.27;79.08
79617;BME280;69097;52.132;5.422;2023-06-24T03:46:51;102526.34;;;16.24;78.93
79617;BME280;69097;52.132;5.422;2023-06-24T03:49:17;102529.56;;;16.26;78.86
79617;BME280;69097;52.132;5.422;2023-06-24T03:51:44;102521.50;;;16.25;79.05
79617;BME280;69097;52.132;5.422;2023-06-24T03:54:11;102525.53;;;16.24;79.17
79617;BME280;69097;52.132;5.422;2023-06-24T03:56:37;102523.56;;;16.21;79.33
79617;BME280;69097;52.132;5.422;2023-06-24T03:59:04;102525.25;;;16.18;79.21
79617;BME280;69097;52.132;5.422;2023-06-24T04:01:32;102531.75;;;16.15;79.66
79617;BME280;69097;52.132;5.422;2023-06-24T04:03:58;102533.00;;;16.14;79.38
79617;BME280;69097;52.132;5.422;2023-06-24T04:06:25;102530.16;;;16.14;79.51
79617;BME280;69097;52.132;5.422;2023-06-24T04:08:51;102535.03;;;16.14;79.60
79617;BME280;69097;52.132;5.422;2023-06-24T04:11:18;102533.44;;;16.13;79.80
79617;BME280;69097;52.132;5.422;2023-06-24T04:13:45;102535.81;;;16.14;79.87
79617;BME280;69097;52.132;5.422;2023-06-24T04:16:12;102543.06;;;16.15;80.10
79617;BME280;69097;52.132;5.422;2023-06-24T04:18:39;102539.81;;;16.17;80.16
79617;BME280;69097;52.132;5.422;2023-06-24T04:21:06;102547.91;;;16.18;80.35
79617;BME280;69097;52.132;5.422;2023-06-24T04:23:33;102547.47;;;16.20;80.77
79617;BME280;69097;52.132;5.422;2023-06-24T04:26:00;102540.94;;;16.23;80.75
79617;BME280;69097;52.132;5.422;2023-06-24T04:28:26;102540.50;;;16.24;80.84
79617;BME280;69097;52.132;5.422;2023-06-24T04:30:54;102548.94;;;16.28;80.63
79617;BME280;69097;52.132;5.422;2023-06-24T04:33:20;102544.44;;;16.30;80.35
79617;BME280;69097;52.132;5.422;2023-06-24T04:35:47;102537.50;;;16.35;79.85
79617;BME280;69097;52.132;5.422;2023-06-24T04:38:14;102531.00;;;16.34;80.49
79617;BME280;69097;52.132;5.422;2023-06-24T04:40:44;102531.81;;;16.35;80.47
79617;BME280;69097;52.132;5.422;2023-06-24T04:43:11;102535.81;;;16.37;80.58
79617;BME280;69097;52.132;5.422;2023-06-24T04:45:39;102536.56;;;16.41;80.58
79617;BME280;69097;52.132;5.422;2023-06-24T04:48:05;102536.09;;;16.46;80.57
79617;BME280;69097;52.132;5.422;2023-06-24T04:50:32;102541.25;;;16.51;80.39
79617;BME280;69097;52.132;5.422;2023-06-24T04:52:59;102543.97;;;16.58;79.87
79617;BME280;69097;52.132;5.422;2023-06-24T04:55:28;102542.28;;;16.61;80.07
79617;BME280;69097;52.132;5.422;2023-06-24T04:57:56;102541.41;;;16.64;80.66
79617;BME280;69097;52.132;5.422;2023-06-24T05:00:23;102538.50;;;16.67;80.58
79617;BME280;69097;52.132;5.422;2023-06-24T05:02:51;102542.81;;;16.75;80.31
79617;BME280;69097;52.132;5.422;2023-06-24T05:05:18;102548.34;;;16.82;79.86
79617;BME280;69097;52.132;5.422;2023-06-24T05:07:46;102553.59;;;16.84;79.71
79617;BME280;69097;52.132;5.422;2023-06-24T05:10:13;102564.44;;;16.89;79.27
79617;BME280;69097;52.132;5.422;2023-06-24T05:12:40;102559.41;;;16.96;79.65
79617;BME280;69097;52.132;5.422;2023-06-24T05:15:08;102558.06;;;17.01;79.48
79617;BME280;69097;52.132;5.422;2023-06-24T05:17:36;102559.63;;;17.05;79.01
79617;BME280;69097;52.132;5.422;2023-06-24T05:20:03;102555.16;;;17.04;78.87
79617;BME280;69097;52.132;5.422;2023-06-24T05:22:30;102560.06;;;17.04;79.12
79617;BME280;69097;52.132;5.422;2023-06-24T05:24:56;102559.19;;;17.07;79.00
79617;BME280;69097;52.132;5.422;2023-06-24T05:27:23;102563.91;;;17.13;78.38
79617;BME280;69097;52.132;5.422;2023-06-24T05:29:49;102568.69;;;17.16;78.42
79617;BME280;69097;52.132;5.422;2023-06-24T05:32:16;102558.47;;;17.23;78.25
79617;BME280;69097;52.132;5.422;2023-06-24T05:34:43;102555.09;;;17.28;77.62
79617;BME280;69097;52.132;5.422;2023-06-24T05:37:10;102558.28;;;17.30;77.00
79617;BME280;69097;52.132;5.422;2023-06-24T05:39:36;102556.91;;;17.38;76.35
79617;BME280;69097;52.132;5.422;2023-06-24T05:42:03;102562.06;;;17.43;76.32
79617;BME280;69097;52.132;5.422;2023-06-24T05:44:30;102568.88;;;17.45;76.52
79617;BME280;69097;52.132;5.422;2023-06-24T05:46:57;102559.44;;;17.52;75.66
79617;BME280;69097;52.132;5.422;2023-06-24T05:49:23;102560.97;;;17.56;75.88
79617;BME280;69097;52.132;5.422;2023-06-24T05:51:50;102562.41;;;17.64;75.81
79617;BME280;69097;52.132;5.422;2023-06-24T05:54:17;102566.41;;;17.67;75.68
79617;BME280;69097;52.132;5.422;2023-06-24T05:56:43;102564.66;;;17.73;76.47
79617;BME280;69097;52.132;5.422;2023-06-24T05:59:10;102569.81;;;17.78;75.91
79617;BME280;69097;52.132;5.422;2023-06-24T06:01:36;102568.91;;;17.81;74.49
79617;BME280;69097;52.132;5.422;2023-06-24T06:04:03;102572.03;;;17.86;74.15
79617;BME280;69097;52.132;5.422;2023-06-24T06:06:30;102577.97;;;17.92;74.20
79617;BME280;69097;52.132;5.422;2023-06-24T06:08:57;102574.19;;;17.98;73.39
79617;BME280;69097;52.132;5.422;2023-06-24T06:11:23;102571.94;;;18.06;75.00
79617;BME280;69097;52.132;5.422;2023-06-24T06:13:50;102572.22;;;18.11;73.80
79617;BME280;69097;52.132;5.422;2023-06-24T06:16:18;102568.41;;;18.18;73.63
79617;BME280;69097;52.132;5.422;2023-06-24T06:18:45;102565.75;;;18.27;71.85
79617;BME280;69097;52.132;5.422;2023-06-24T06:21:11;102565.91;;;18.36;71.88
79617;BME280;69097;52.132;5.422;2023-06-24T06:23:38;102562.47;;;18.45;71.91
79617;BME280;69097;52.132;5.422;2023-06-24T06:26:05;102560.94;;;18.56;71.00
79617;BME280;69097;52.132;5.422;2023-06-24T06:28:31;102562.22;;;18.68;71.51
79617;BME280;69097;52.132;5.422;2023-06-24T06:30:58;102571.63;;;18.81;70.17
79617;BME280;69097;52.132;5.422;2023-06-24T06:33:24;102569.63;;;18.94;69.46
79617;BME280;69097;52.132;5.422;2023-06-24T06:35:51;102562.38;;;19.05;70.11
79617;BME280;69097;52.132;5.422;2023-06-24T06:38:17;102560.72;;;19.20;69.93
79617;BME280;69097;52.132;5.422;2023-06-24T06:40:44;102560.69;;;19.36;68.77
79617;BME280;69097;52.132;5.422;2023-06-24T06:43:10;102557.84;;;19.49;68.58
79617;BME280;69097;52.132;5.422;2023-06-24T06:45:37;102565.97;;;19.63;68.10
79617;BME280;69097;52.132;5.422;2023-06-24T06:48:04;102567.69;;;19.73;67.02
79617;BME280;69097;52.132;5.422;2023-06-24T06:50:33;102571.31;;;19.86;67.70
79617;BME280;69097;52.132;5.422;2023-06-24T06:53:00;102564.72;;;20.02;67.81
79617;BME280;69097;52.132;5.422;2023-06-24T06:55:28;102560.97;;;20.17;67.66
79617;BME280;69097;52.132;5.422;2023-06-24T06:57:55;102568.25;;;20.31;66.82
79617;BME280;69097;52.132;5.422;2023-06-24T07:00:22;102569.81;;;20.44;66.63
79617;BME280;69097;52.132;5.422;2023-06-24T07:02:48;102563.72;;;20.55;66.13
79617;BME280;69097;52.132;5.422;2023-06-24T07:05:15;102566.19;;;20.65;64.44
79617;BME280;69097;52.132;5.422;2023-06-24T07:07:41;102564.22;;;20.75;63.22
79617;BME280;69097;52.132;5.422;2023-06-24T07:10:10;102565.91;;;20.85;63.36
79617;BME280;69097;52.132;5.422;2023-06-24T07:12:37;102563.44;;;20.96;62.95
79617;BME280;69097;52.132;5.422;2023-06-24T07:15:04;102562.97;;;21.10;63.07
79617;BME280;69097;52.132;5.422;2023-06-24T07:17:31;102558.78;;;21.24;61.93
79617;BME280;69097;52.132;5.422;2023-06-24T07:19:57;102562.81;;;21.35;61.67
79617;BME280;69097;52.132;5.422;2023-06-24T07:22:24;102561.94;;;21.47;62.75
79617;BME280;69097;52.132;5.422;2023-06-24T07:24:50;102575.00;;;21.57;61.34
79617;BME280;69097;52.132;5.422;2023-06-24T07:27:17;102578.56;;;21.70;60.95
79617;BME280;69097;52.132;5.422;2023-06-24T07:29:43;102584.03;;;21.86;61.80
79617;BME280;69097;52.132;5.422;2023-06-24T07:32:10;102581.09;;;21.99;60.76
79617;BME280;69097;52.132;5.422;2023-06-24T07:34:36;102574.13;;;22.09;59.20
79617;BME280;69097;52.132;5.422;2023-06-24T07:37:03;102577.03;;;22.18;59.44
79617;BME280;69097;52.132;5.422;2023-06-24T07:39:44;102569.13;;;22.31;60.41
79617;BME280;69097;52.132;5.422;2023-06-24T07:42:10;102575.00;;;22.46;60.19
79617;BME280;69097;52.132;5.422;2023-06-24T07:44:37;102567.91;;;22.59;58.86
79617;BME280;69097;52.132;5.422;2023-06-24T07:47:05;102566.00;;;22.74;58.66
79617;BME280;69097;52.132;5.422;2023-06-24T07:49:32;102567.75;;;22.81;58.56
79617;BME280;69097;52.132;5.422;2023-06-24T07:51:59;102562.53;;;22.88;57.96
79617;BME280;69097;52.132;5.422;2023-06-24T07:54:25;102560.75;;;23.00;58.39
79617;BME280;69097;52.132;5.422;2023-06-24T07:56:52;102552.78;;;23.13;56.37
79617;BME280;69097;52.132;5.422;2023-06-24T07:59:18;102553.88;;;23.25;56.36
79617;BME280;69097;52.132;5.422;2023-06-24T08:01:45;102554.19;;;23.27;54.87
79617;BME280;69097;52.132;5.422;2023-06-24T08:04:11;102559.78;;;23.39;55.95
79617;BME280;69097;52.132;5.422;2023-06-24T08:06:39;102561.94;;;23.53;56.16
79617;BME280;69097;52.132;5.422;2023-06-24T08:09:06;102551.94;;;23.58;53.85
79617;BME280;69097;52.132;5.422;2023-06-24T08:11:33;102558.09;;;23.65;54.06
79617;BME280;69097;52.132;5.422;2023-06-24T08:13:59;102548.06;;;23.70;55.59
79617;BME280;69097;52.132;5.422;2023-06-24T08:16:26;102553.88;;;23.84;54.74
79617;BME280;69097;52.132;5.422;2023-06-24T08:18:52;102547.50;;;23.98;53.49
79617;BME280;69097;52.132;5.422;2023-06-24T08:21:19;102552.81;;;24.14;53.53
79617;BME280;69097;52.132;5.422;2023-06-24T08:23:46;102557.22;;;24.24;51.96
79617;BME280;69097;52.132;5.422;2023-06-24T08:26:12;102548.91;;;24.26;52.65
79617;BME280;69097;52.132;5.422;2023-06-24T08:28:43;102553.81;;;24.35;53.03
79617;BME280;69097;52.132;5.422;2023-06-24T08:31:10;102540.97;;;24.45;52.32
79617;BME280;69097;52.132;5.422;2023-06-24T08:33:36;102547.44;;;24.55;51.39
79617;BME280;69097;52.132;5.422;2023-06-24T08:36:03;102547.69;;;24.66;51.12
79617;BME280;69097;52.132;5.422;2023-06-24T08:38:29;102547.03;;;24.71;50.20
79617;BME280;69097;52.132;5.422;2023-06-24T08:40:56;102552.88;;;24.76;51.77
79617;BME280;69097;52.132;5.422;2023-06-24T08:43:22;102546.03;;;24.74;49.60
79617;BME280;69097;52.132;5.422;2023-06-24T08:45:49;102550.91;;;24.82;50.80
79617;BME280;69097;52.132;5.422;2023-06-24T08:48:17;102548.00;;;25.06;50.00
79617;BME280;69097;52.132;5.422;2023-06-24T08:50:50;102546.22;;;25.23;51.51
79617;BME280;69097;52.132;5.422;2023-06-24T08:53:18;102545.63;;;25.33;50.18
79617;BME280;69097;52.132;5.422;2023-06-24T08:55:47;102540.34;;;25.32;48.96
79617;BME280;69097;52.132;5.422;2023-06-24T08:58:15;102535.59;;;25.29;49.03
79617;BME280;69097;52.132;5.422;2023-06-24T09:00:43;102541.34;;;25.29;49.42
79617;BME280;69097;52.132;5.422;2023-06-24T09:03:09;102542.16;;;25.29;49.86
79617;BME280;69097;52.132;5.422;2023-06-24T09:05:36;102540.31;;;25.41;50.99
79617;BME280;69097;52.132;5.422;2023-06-24T09:08:03;102548.53;;;25.48;50.07
79617;BME280;69097;52.132;5.422;2023-06-24T09:10:33;102543.16;;;25.56;51.36
79617;BME280;69097;52.132;5.422;2023-06-24T09:13:00;102544.72;;;25.71;50.75
79617;BME280;69097;52.132;5.422;2023-06-24T09:15:45;102540.03;;;25.88;49.04
79617;BME280;69097;52.132;5.422;2023-06-24T09:18:13;102540.22;;;25.99;47.56
79617;BME280;69097;52.132;5.422;2023-06-24T09:20:45;102537.91;;;26.18;49.21
79617;BME280;69097;52.132;5.422;2023-06-24T09:23:16;102545.38;;;26.30;48.43
79617;BME280;69097;52.132;5.422;2023-06-24T09:25:43;102540.44;;;26.50;49.12
79617;BME280;69097;52.132;5.422;2023-06-24T09:28:09;102536.41;;;26.62;47.11
79617;BME280;69097;52.132;5.422;2023-06-24T09:30:40;102534.03;;;26.81;47.29
79617;BME280;69097;52.132;5.422;2023-06-24T09:33:10;102533.47;;;27.03;45.99
79617;BME280;69097;52.132;5.422;2023-06-24T09:35:37;102526.25;;;27.13;46.28
79617;BME280;69097;52.132;5.422;2023-06-24T09:38:04;102527.16;;;27.24;48.32
79617;BME280;69097;52.132;5.422;2023-06-24T09:40:34;102529.94;;;27.39;44.74
79617;BME280;69097;52.132;5.422;2023-06-24T09:43:01;102519.25;;;27.45;46.67
79617;BME280;69097;52.132;5.422;2023-06-24T09:45:29;102522.50;;;27.58;46.50
79617;BME280;69097;52.132;5.422;2023-06-24T09:47:57;102512.16;;;27.77;46.08
79617;BME280;69097;52.132;5.422;2023-06-24T09:50:27;102511.41;;;27.82;44.41
79617;BME280;69097;52.132;5.422;2023-06-24T09:52:56;102521.19;;;27.90;44.47
79617;BME280;69097;52.132;5.422;2023-06-24T09:55:24;102510.44;;;27.91;42.99
79617;BME280;69097;52.132;5.422;2023-06-24T09:57:51;102509.97;;;27.98;44.85
79617;BME280;69097;52.132;5.422;2023-06-24T10:00:19;102513.16;;;28.05;43.49
79617;BME280;69097;52.132;5.422;2023-06-24T10:02:46;102515.88;;;28.20;42.59
79617;BME280;69097;52.132;5.422;2023-06-24T10:05:14;102511.75;;;28.32;42.11
79617;BME280;69097;52.132;5.422;2023-06-24T10:07:41;102508.09;;;28.42;43.35
79617;BME280;69097;52.132;5.422;2023-06-24T10:10:09;102512.66;;;28.54;43.52
79617;BME280;69097;52.132;5.422;2023-06-24T10:12:36;102502.66;;;28.50;41.56
79617;BME280;69097;52.132;5.422;2023-06-24T10:15:03;102508.97;;;28.59;42.43
79617;BME280;69097;52.132;5.422;2023-06-24T10:17:30;102507.44;;;28.64;40.91
79617;BME280;69097;52.132;5.422;2023-06-24T10:19:57;102508.75;;;28.68;41.19
79617;BME280;69097;52.132;5.422;2023-06-24T10:22:23;102508.78;;;28.74;40.32
79617;BME280;69097;52.132;5.422;2023-06-24T10:24:59;102500.38;;;28.76;41.77
79617;BME280;69097;52.132;5.422;2023-06-24T10:27:26;102503.56;;;28.89;40.44
79617;BME280;69097;52.132;5.422;2023-06-24T10:29:54;102489.13;;;28.94;44.01
79617;BME280;69097;52.132;5.422;2023-06-24T10:32:24;102490.44;;;29.04;40.25
79617;BME280;69097;52.132;5.422;2023-06-24T10:34:54;102487.81;;;29.07;41.86
79617;BME280;69097;52.132;5.422;2023-06-24T10:37:23;102491.00;;;29.09;40.12
79617;BME280;69097;52.132;5.422;2023-06-24T10:44:51;102496.81;;;29.47;39.02
79617;BME280;69097;52.132;5.422;2023-06-24T10:47:19;102481.59;;;29.25;38.81
79617;BME280;69097;52.132;5.422;2023-06-24T10:49:46;102486.72;;;28.76;40.11
79617;BME280;69097;52.132;5.422;2023-06-24T10:52:12;102486.13;;;28.50;41.52
79617;BME280;69097;52.132;5.422;2023-06-24T10:54:40;102491.91;;;28.50;42.70
79617;BME280;69097;52.132;5.422;2023-06-24T10:57:08;102486.19;;;28.78;45.03
79617;BME280;69097;52.132;5.422;2023-06-24T10:59:35;102476.84;;;29.16;41.61
79617;BME280;69097;52.132;5.422;2023-06-24T11:02:01;102471.31;;;29.24;41.33
79617;BME280;69097;52.132;5.422;2023-06-24T11:04:28;102475.47;;;28.95;41.99
79617;BME280;69097;52.132;5.422;2023-06-24T11:07:01;102476.16;;;28.51;41.88
79617;BME280;69097;52.132;5.422;2023-06-24T11:09:28;102475.75;;;28.27;41.95
79617;BME280;69097;52.132;5.422;2023-06-24T11:11:54;102473.84;;;28.13;43.40
79617;BME280;69097;52.132;5.422;2023-06-24T11:14:21;102472.97;;;27.96;43.18
79617;BME280;69097;52.132;5.422;2023-06-24T11:16:48;102471.56;;;27.86;44.59
79617;BME280;69097;52.132;5.422;2023-06-24T11:19:15;102470.66;;;28.06;44.55
79617;BME280;69097;52.132;5.422;2023-06-24T11:21:42;102466.97;;;28.00;45.50
79617;BME280;69097;52.132;5.422;2023-06-24T11:24:08;102472.88;;;27.85;44.59
79617;BME280;69097;52.132;5.422;2023-06-24T11:26:38;102471.94;;;27.62;44.12
79617;BME280;69097;52.132;5.422;2023-06-24T11:29:10;102464.38;;;27.34;44.97
79617;BME280;69097;52.132;5.422;2023-06-24T11:31:37;102469.72;;;27.21;46.19
79617;BME280;69097;52.132;5.422;2023-06-24T11:34:04;102462.56;;;27.11;45.82
79617;BME280;69097;52.132;5.422;2023-06-24T11:36:32;102457.53;;;27.31;48.04
79617;BME280;69097;52.132;5.422;2023-06-24T11:38:59;102460.22;;;27.77;46.43
79617;BME280;69097;52.132;5.422;2023-06-24T11:41:25;102462.88;;;28.23;46.36
79617;BME280;69097;52.132;5.422;2023-06-24T11:43:53;102458.75;;;28.46;43.17
79617;BME280;69097;52.132;5.422;2023-06-24T11:46:27;102456.34;;;28.28;43.12
79617;BME280;69097;52.132;5.422;2023-06-24T11:49:07;102452.66;;;28.22;45.25
79617;BME280;69097;52.132;5.422;2023-06-24T11:51:34;102453.34;;;28.06;44.24
79617;BME280;69097;52.132;5.422;2023-06-24T11:54:05;102446.72;;;27.94;44.80
79617;BME280;69097;52.132;5.422;2023-06-24T11:56:36;102449.25;;;27.81;44.37
79617;BME280;69097;52.132;5.422;2023-06-24T11:59:17;102451.03;;;27.73;46.49
79617;BME280;69097;52.132;5.422;2023-06-24T12:01:44;102458.28;;;27.63;47.56
79617;BME280;69097;52.132;5.422;2023-06-24T12:04:14;102454.03;;;27.53;46.06
79617;BME280;69097;52.132;5.422;2023-06-24T12:06:42;102454.72;;;27.37;46.87
79617;BME280;69097;52.132;5.422;2023-06-24T12:09:09;102449.84;;;27.23;48.01
79617;BME280;69097;52.132;5.422;2023-06-24T12:11:37;102445.03;;;27.14;49.39
79617;BME280;69097;52.132;5.422;2023-06-24T12:14:05;102450.56;;;27.12;49.57
79617;BME280;69097;52.132;5.422;2023-06-24T12:16:32;102448.13;;;27.05;49.17
79617;BME280;69097;52.132;5.422;2023-06-24T12:18:58;102449.09;;;26.97;49.13
79617;BME280;69097;52.132;5.422;2023-06-24T12:21:25;102443.78;;;26.90;48.99
79617;BME280;69097;52.132;5.422;2023-06-24T12:23:51;102446.09;;;26.86;50.69
79617;BME280;69097;52.132;5.422;2023-06-24T12:26:17;102451.81;;;26.80;49.60
79617;BME280;69097;52.132;5.422;2023-06-24T12:28:44;102436.69;;;26.85;51.82
79617;BME280;69097;52.132;5.422;2023-06-24T12:31:11;102439.78;;;26.82;49.01
79617;BME280;69097;52.132;5.422;2023-06-24T12:33:37;102445.25;;;26.80;50.19
79617;BME280;69097;52.132;5.422;2023-06-24T12:36:04;102444.22;;;26.83;50.33
79617;BME280;69097;52.132;5.422;2023-06-24T12:38:31;102431.69;;;26.86;48.09
79617;BME280;69097;52.132;5.422;2023-06-24T12:40:57;102433.16;;;26.76;47.57
79617;BME280;69097;52.132;5.422;2023-06-24T12:43:24;102435.00;;;26.79;48.95
79617;BME280;69097;52.132;5.422;2023-06-24T12:45:50;102426.22;;;26.88;49.12
79617;BME280;69097;52.132;5.422;2023-06-24T12:48:19;102422.59;;;26.93;49.92
79617;BME280;69097;52.132;5.422;2023-06-24T12:50:46;102430.50;;;26.98;48.15
79617;BME280;69097;52.132;5.422;2023-06-24T12:53:13;102419.72;;;26.93;47.96
79617;BME280;69097;52.132;5.422;2023-06-24T12:55:41;102423.03;;;26.86;46.69
79617;BME280;69097;52.132;5.422;2023-06-24T12:58:08;102417.00;;;26.84;47.08
79617;BME280;69097;52.132;5.422;2023-06-24T13:00:34;102424.06;;;26.83;47.20
79617;BME280;69097;52.132;5.422;2023-06-24T13:03:02;102417.25;;;26.80;47.13
79617;BME280;69097;52.132;5.422;2023-06-24T13:05:29;102414.13;;;26.84;47.28
79617;BME280;69097;52.132;5.422;2023-06-24T13:07:55;102416.50;;;26.85;48.87